Time;durP1;ratioP1;P1;durP2;ratioP2;P2;SDS_P1;SDS_P2;PMS_P1;PMS_P2;Temp;Humidity;BMP_temperature;BMP_pressure;BME280_temperature;BME280_humidity;BME280_pressure;Samples;Min_cycle;Max_cycle;Signal;HPM_P1;HPM_P2
2023/08/29 00:01:04;;;;;;;19.02;4.15;;;17.20;93.70;;;;;;5047479;28;20025;-55
2023/08/29 00:03:32;;;;;;;19.77;4.00;;;17.20;93.70;;;;;;5045807;28;20120;-55
2023/08/29 00:06:01;;;;;;;16.75;3.58;;;17.20;93.60;;;;;;5045767;28;20089;-56
2023/08/29 00:08:27;;;;;;;13.25;3.55;;;17.20;93.60;;;;;;5045733;28;20030;-55
2023/08/29 00:10:59;;;;;;;15.35;3.70;;;17.20;93.50;;;;;;5047468;28;20381;-55
2023/08/29 00:13:25;;;;;;;12.43;3.70;;;17.20;93.50;;;;;;5046212;28;20096;-55
2023/08/29 00:15:51;;;;;;;11.50;3.10;;;17.20;93.50;;;;;;5045157;28;20033;-55
2023/08/29 00:18:16;;;;;;;12.65;3.45;;;17.20;93.60;;;;;;5029183;28;20033;-55
2023/08/29 00:20:42;;;;;;;11.45;3.63;;;17.10;93.50;;;;;;5045598;28;20088;-55
2023/08/29 00:23:10;;;;;;;14.05;3.28;;;17.20;93.50;;;;;;5047138;28;20039;-55
2023/08/29 00:25:36;;;;;;;10.52;2.83;;;17.20;93.50;;;;;;5045645;28;20085;-55
2023/08/29 00:28:01;;;;;;;11.15;3.42;;;17.20;93.50;;;;;;5045417;28;20025;-56
2023/08/29 00:30:27;;;;;;;15.70;3.35;;;17.20;93.40;;;;;;5029110;28;20020;-55
2023/08/29 00:32:52;;;;;;;6.38;2.22;;;17.20;93.40;;;;;;5045930;28;20041;-55
2023/08/29 00:35:18;;;;;;;10.85;2.80;;;17.20;93.40;;;;;;5028745;28;20093;-55
2023/08/29 00:37:43;;;;;;;9.52;3.00;;;17.10;93.40;;;;;;5046766;28;20049;-53
2023/08/29 00:40:10;;;;;;;11.13;2.85;;;17.10;93.40;;;;;;5045457;28;20029;-55
2023/08/29 00:42:36;;;;;;;11.88;2.90;;;17.10;93.40;;;;;;5045034;28;20037;-55
2023/08/29 00:45:01;;;;;;;8.73;3.05;;;17.10;93.40;;;;;;5044986;28;20045;-55
2023/08/29 00:47:27;;;;;;;15.55;2.80;;;17.10;93.50;;;;;;5046221;28;20029;-55
2023/08/29 00:49:53;;;;;;;10.15;2.90;;;17.10;93.50;;;;;;5028443;28;20022;-55
2023/08/29 00:52:18;;;;;;;16.42;2.90;;;17.10;93.40;;;;;;5044654;28;20029;-55
2023/08/29 00:54:44;;;;;;;9.00;2.88;;;17.10;93.50;;;;;;5028235;28;20039;-55
2023/08/29 00:57:09;;;;;;;8.77;2.28;;;17.00;93.40;;;;;;5045115;28;20052;-55
2023/08/29 00:59:35;;;;;;;7.47;2.78;;;17.00;93.40;;;;;;5044894;28;20116;-55
2023/08/29 01:02:00;;;;;;;8.77;2.38;;;17.00;93.40;;;;;;5044825;28;20049;-55
2023/08/29 01:04:26;;;;;;;7.50;2.63;;;17.00;93.40;;;;;;5044513;28;20049;-55
2023/08/29 01:06:54;;;;;;;8.43;2.42;;;17.00;93.40;;;;;;5046069;28;20022;-55
2023/08/29 01:09:20;;;;;;;9.43;2.95;;;17.00;93.40;;;;;;5044671;28;20033;-55
2023/08/29 01:11:51;;;;;;;9.75;2.60;;;17.00;93.30;;;;;;5045711;28;20033;-55
2023/08/29 01:14:36;;;;;;;8.85;2.70;;;17.00;93.30;;;;;;5044780;28;20037;-55
2023/08/29 01:17:18;;;;;;;5.55;2.47;;;17.00;93.30;;;;;;5044865;28;20045;-55
2023/08/29 01:19:44;;;;;;;5.53;2.53;;;17.00;93.30;;;;;;5044339;28;20041;-55
2023/08/29 01:22:33;;;;;;;9.73;2.17;;;17.00;93.30;;;;;;5044210;28;20045;-55
2023/08/29 01:25:19;;;;;;;7.57;2.45;;;16.90;93.20;;;;;;5044319;28;20120;-55
2023/08/29 01:27:45;;;;;;;8.57;2.50;;;17.00;93.20;;;;;;5043320;28;20030;-55
2023/08/29 01:30:11;;;;;;;8.30;2.22;;;17.00;93.20;;;;;;5044435;28;20017;-55
2023/08/29 01:32:36;;;;;;;7.55;2.63;;;17.00;93.10;;;;;;5044126;28;20033;-55
2023/08/29 01:35:02;;;;;;;8.57;2.83;;;17.00;93.10;;;;;;5044088;28;20025;-55
2023/08/29 01:37:28;;;;;;;6.88;2.97;;;17.00;93.10;;;;;;5044188;28;20038;-55
2023/08/29 01:39:53;;;;;;;8.57;2.58;;;17.00;93.10;;;;;;5044157;28;20035;-55
2023/08/29 01:42:19;;;;;;;12.60;2.85;;;16.90;93.10;;;;;;5043783;28;20044;-55
2023/08/29 01:44:47;;;;;;;7.88;2.72;;;16.90;93.10;;;;;;5045453;28;20075;-55
2023/08/29 01:47:16;;;;;;;9.23;2.97;;;16.90;93.10;;;;;;5043607;28;20041;-55
2023/08/29 01:49:42;;;;;;;9.07;2.92;;;16.90;93.10;;;;;;5027262;28;20093;-55
2023/08/29 01:52:07;;;;;;;9.68;2.80;;;16.90;93.10;;;;;;5043771;28;20029;-55
2023/08/29 01:54:33;;;;;;;8.18;2.80;;;16.90;93.10;;;;;;5044452;28;20493;-56
2023/08/29 01:56:59;;;;;;;5.30;2.50;;;16.90;93.10;;;;;;5044972;28;20112;-55
2023/08/29 01:59:25;;;;;;;7.15;2.53;;;16.90;93.10;;;;;;5043689;28;20037;-55
2023/08/29 02:01:50;;;;;;;5.97;2.78;;;16.90;93.10;;;;;;5043728;28;20026;-55
2023/08/29 02:04:16;;;;;;;7.47;3.22;;;16.90;93.10;;;;;;5043362;28;20040;-56
2023/08/29 02:06:42;;;;;;;5.88;3.00;;;16.90;93.10;;;;;;5043678;28;20457;-54
2023/08/29 02:09:07;;;;;;;5.28;2.60;;;16.90;93.40;;;;;;5044191;28;20116;-55
2023/08/29 02:11:33;;;;;;;9.35;4.13;;;16.80;93.10;;;;;;5044841;28;20022;-55
2023/08/29 02:13:58;;;;;;;5.78;3.10;;;16.80;93.00;;;;;;5044652;28;20175;-55
2023/08/29 02:16:24;;;;;;;9.05;3.65;;;16.80;93.10;;;;;;5043534;28;20350;-55
2023/08/29 02:18:51;;;;;;;5.95;3.17;;;16.80;93.20;;;;;;5043196;28;20025;-55
2023/08/29 02:21:17;;;;;;;7.95;4.53;;;16.80;93.10;;;;;;5043356;28;20033;-55
2023/08/29 02:23:42;;;;;;;4.68;3.55;;;16.80;93.10;;;;;;5044795;28;20448;-55
2023/08/29 02:26:08;;;;;;;5.68;3.45;;;16.80;93.10;;;;;;5043271;28;20040;-55
2023/08/29 02:28:37;;;;;;;5.68;3.47;;;16.90;93.10;;;;;;5043401;28;20084;-55
2023/08/29 02:31:07;;;;;;;8.25;3.75;;;16.90;93.10;;;;;;5043114;28;20040;-55
2023/08/29 02:33:34;;;;;;;6.95;3.65;;;16.80;93.10;;;;;;5044714;28;20038;-55
2023/08/29 02:35:59;;;;;;;6.82;3.35;;;16.80;93.10;;;;;;5043362;28;20222;-55
2023/08/29 02:38:25;;;;;;;7.93;4.50;;;16.80;93.10;;;;;;5043285;28;20030;-55
2023/08/29 02:40:51;;;;;;;6.65;4.47;;;16.80;93.10;;;;;;5044602;28;20133;-55
2023/08/29 02:43:16;;;;;;;6.38;4.32;;;16.80;93.10;;;;;;5059885;28;20029;-55
2023/08/29 02:45:42;;;;;;;6.03;4.45;;;16.80;93.20;;;;;;5043311;28;20065;-55
2023/08/29 02:48:07;;;;;;;7.72;4.13;;;16.80;93.20;;;;;;5043256;28;20079;-55
2023/08/29 02:50:33;;;;;;;5.88;4.22;;;16.80;93.20;;;;;;5043280;28;20061;-55
2023/08/29 02:52:59;;;;;;;7.03;3.58;;;16.70;93.20;;;;;;5044396;28;20461;-56
2023/08/29 02:55:24;;;;;;;5.47;3.70;;;16.80;93.20;;;;;;5043259;28;20026;-55
2023/08/29 02:57:50;;;;;;;5.97;3.78;;;16.80;93.20;;;;;;5043154;28;20029;-55
2023/08/29 03:00:16;;;;;;;6.05;3.83;;;16.80;93.20;;;;;;5044429;28;20029;-55
2023/08/29 03:02:42;;;;;;;5.80;3.53;;;16.70;93.30;;;;;;5043297;28;20026;-55
2023/08/29 03:05:08;;;;;;;7.05;3.85;;;16.70;93.30;;;;;;5043037;28;20029;-55
2023/08/29 03:07:33;;;;;;;7.43;3.65;;;16.70;93.20;;;;;;5042960;28;20025;-55
2023/08/29 03:09:59;;;;;;;5.40;3.38;;;16.70;93.20;;;;;;5043236;28;20038;-55
2023/08/29 03:12:24;;;;;;;5.60;3.20;;;16.70;93.20;;;;;;5043085;28;20442;-54
2023/08/29 03:14:53;;;;;;;6.25;3.33;;;16.70;93.30;;;;;;5044617;28;20029;-55
2023/08/29 03:17:19;;;;;;;7.05;3.25;;;16.70;93.30;;;;;;5026705;28;20026;-55
2023/08/29 03:19:46;;;;;;;3.22;2.65;;;16.70;93.40;;;;;;5042719;28;20560;-55
2023/08/29 03:22:12;;;;;;;4.82;3.17;;;16.70;93.40;;;;;;5042928;28;20161;-55
2023/08/29 03:24:37;;;;;;;6.00;3.28;;;16.60;93.40;;;;;;5042856;28;20067;-55
2023/08/29 03:27:03;;;;;;;6.38;3.53;;;16.70;93.70;;;;;;5042591;28;20041;-55
2023/08/29 03:29:29;;;;;;;5.40;3.58;;;16.60;93.40;;;;;;5042869;28;20063;-55
2023/08/29 03:31:54;;;;;;;4.18;3.55;;;16.60;93.40;;;;;;5044229;28;20362;-56
2023/08/29 03:34:20;;;;;;;5.93;3.38;;;16.60;93.40;;;;;;5042874;28;20097;-55
2023/08/29 03:36:45;;;;;;;6.72;3.88;;;16.60;93.40;;;;;;5042837;28;20033;-55
2023/08/29 03:39:11;;;;;;;6.20;3.45;;;16.60;93.40;;;;;;5042772;28;20083;-55
2023/08/29 03:41:38;;;;;;;7.70;3.97;;;16.60;93.40;;;;;;5043995;28;20051;-55
2023/08/29 03:44:06;;;;;;;6.30;3.50;;;16.60;93.40;;;;;;5042448;28;20037;-55
2023/08/29 03:46:32;;;;;;;7.15;3.50;;;16.60;93.40;;;;;;5042796;28;20022;-55
2023/08/29 03:48:57;;;;;;;18.52;4.65;;;16.60;93.40;;;;;;5042612;28;20555;-56
2023/08/29 03:51:23;;;;;;;7.47;3.53;;;16.60;93.60;;;;;;5043894;28;20457;-56
2023/08/29 03:53:49;;;;;;;6.03;3.63;;;16.50;93.50;;;;;;5046003;28;20394;-55
2023/08/29 03:56:14;;;;;;;4.38;3.08;;;16.60;93.50;;;;;;5046203;28;20029;-55
2023/08/29 03:58:40;;;;;;;6.70;3.20;;;16.60;93.70;;;;;;5045772;28;20029;-55
2023/08/29 04:01:06;;;;;;;6.32;3.88;;;16.60;93.60;;;;;;5047362;28;20379;-55
2023/08/29 04:03:31;;;;;;;6.40;3.50;;;16.60;93.60;;;;;;5046093;28;20022;-55
2023/08/29 04:05:57;;;;;;;6.90;4.03;;;16.50;93.50;;;;;;5045882;28;20136;-55
2023/08/29 04:08:23;;;;;;;5.88;3.78;;;16.50;93.50;;;;;;5046104;28;20048;-56
2023/08/29 04:10:48;;;;;;;7.45;3.30;;;16.50;93.50;;;;;;5045844;28;20029;-55
2023/08/29 04:13:14;;;;;;;5.70;4.20;;;16.50;93.50;;;;;;5045927;28;20018;-56
2023/08/29 04:15:39;;;;;;;6.60;4.30;;;16.50;93.40;;;;;;5047225;28;20042;-56
2023/08/29 04:18:06;;;;;;;5.82;3.83;;;16.50;93.40;;;;;;5046937;28;20036;-56
2023/08/29 04:20:31;;;;;;;6.00;3.95;;;16.50;93.40;;;;;;5045601;28;20501;-55
2023/08/29 04:22:58;;;;;;;4.35;3.50;;;16.50;93.40;;;;;;5045619;28;20030;-55
2023/08/29 04:25:26;;;;;;;7.15;3.85;;;16.40;93.40;;;;;;5045514;28;20034;-56
2023/08/29 04:27:53;;;;;;;5.68;3.75;;;16.40;93.40;;;;;;5047005;28;20085;-56
2023/08/29 04:30:18;;;;;;;4.75;3.60;;;16.40;93.70;;;;;;5047001;28;20064;-56
2023/08/29 04:32:44;;;;;;;4.80;3.40;;;16.40;93.40;;;;;;5046876;28;20083;-56
2023/08/29 04:35:10;;;;;;;6.90;3.60;;;16.40;93.40;;;;;;5046958;28;20041;-55
2023/08/29 04:37:36;;;;;;;4.00;3.38;;;16.40;93.40;;;;;;5045572;28;20088;-55
2023/08/29 04:40:06;;;;;;;4.50;3.00;;;16.40;93.40;;;;;;5045299;28;20451;-56
2023/08/29 04:42:32;;;;;;;4.22;2.70;;;16.40;93.70;;;;;;5045256;28;20038;-56
2023/08/29 04:44:58;;;;;;;5.63;2.90;;;16.40;93.40;;;;;;5045307;28;20041;-56
2023/08/29 04:47:23;;;;;;;4.43;2.97;;;16.40;93.40;;;;;;5045427;28;20025;-55
2023/08/29 04:49:49;;;;;;;4.80;2.75;;;16.40;93.30;;;;;;5045319;28;20026;-54
2023/08/29 04:52:14;;;;;;;7.57;3.22;;;16.40;93.30;;;;;;5046734;28;20414;-56
2023/08/29 04:54:40;;;;;;;3.13;2.53;;;16.40;93.30;;;;;;5045176;28;20068;-55
2023/08/29 04:57:05;;;;;;;4.57;2.88;;;16.40;93.30;;;;;;5044872;28;20029;-56
2023/08/29 04:59:31;;;;;;;4.80;2.85;;;16.30;93.20;;;;;;5028374;28;20105;-56
2023/08/29 05:01:56;;;;;;;3.70;2.85;;;16.40;93.30;;;;;;5028119;28;20068;-61
2023/08/29 05:04:22;;;;;;;4.80;2.53;;;16.40;93.20;;;;;;5046224;28;20034;-61
2023/08/29 05:06:48;;;;;;;3.90;2.40;;;16.40;93.20;;;;;;5061394;28;20104;-61
2023/08/29 05:09:13;;;;;;;4.32;2.38;;;16.40;93.20;;;;;;5044755;28;20041;-61
2023/08/29 05:11:39;;;;;;;4.97;2.60;;;16.40;93.20;;;;;;5044776;28;20089;-61
2023/08/29 05:14:04;;;;;;;4.10;2.58;;;16.30;93.20;;;;;;5044750;28;20033;-61
2023/08/29 05:16:32;;;;;;;4.65;2.55;;;16.30;93.20;;;;;;5045973;28;20089;-61
2023/08/29 05:18:58;;;;;;;5.63;2.65;;;16.40;93.20;;;;;;5028191;28;20161;-61
2023/08/29 05:21:24;;;;;;;2.85;2.40;;;16.30;93.20;;;;;;5046121;28;20406;-61
2023/08/29 05:23:49;;;;;;;2.88;2.40;;;16.30;93.20;;;;;;5044400;28;20033;-61
2023/08/29 05:26:15;;;;;;;5.95;2.38;;;16.30;93.20;;;;;;5044307;28;20026;-61
2023/08/29 05:28:41;;;;;;;2.95;1.92;;;16.30;93.20;;;;;;5044344;28;20022;-61
2023/08/29 05:31:06;;;;;;;3.25;2.05;;;16.30;93.10;;;;;;5044401;28;20031;-61
2023/08/29 05:33:32;;;;;;;2.88;2.20;;;16.30;93.20;;;;;;5045546;28;20089;-61
2023/08/29 05:35:57;;;;;;;5.85;2.28;;;16.30;93.20;;;;;;5044209;28;20041;-61
2023/08/29 05:38:25;;;;;;;2.67;2.03;;;16.30;93.20;;;;;;5045726;28;20044;-61
2023/08/29 05:40:54;;;;;;;4.30;2.35;;;16.30;93.20;;;;;;5045390;28;20034;-61
2023/08/29 05:43:19;;;;;;;4.22;2.10;;;16.30;93.20;;;;;;5043945;28;20052;-61
2023/08/29 05:45:45;;;;;;;3.22;2.10;;;16.30;93.20;;;;;;5045184;28;20089;-61
2023/08/29 05:48:10;;;;;;;4.88;2.10;;;16.30;93.20;;;;;;5043844;28;20464;-61
2023/08/29 05:50:39;;;;;;;5.10;2.28;;;16.30;93.20;;;;;;5045572;28;20500;-61
2023/08/29 05:53:05;;;;;;;2.90;1.77;;;16.30;93.20;;;;;;5060506;28;20496;-61
2023/08/29 05:55:31;;;;;;;3.25;1.90;;;16.30;93.20;;;;;;5044697;28;20042;-61
2023/08/29 05:57:56;;;;;;;3.28;1.90;;;16.30;93.20;;;;;;5043417;28;20030;-61
2023/08/29 06:00:22;;;;;;;2.72;1.90;;;16.30;93.20;;;;;;5042710;28;20085;-61
2023/08/29 06:02:49;;;;;;;2.50;1.92;;;16.30;93.20;;;;;;5025745;28;20044;-61
2023/08/29 06:05:14;;;;;;;2.72;1.73;;;16.30;93.30;;;;;;5041717;28;20041;-61
2023/08/29 06:07:40;;;;;;;2.45;2.00;;;16.30;93.30;;;;;;5044177;28;20028;-61
2023/08/29 06:10:07;;;;;;;4.97;1.98;;;16.20;93.30;;;;;;5048489;28;20029;-61
2023/08/29 06:12:33;;;;;;;15.32;2.78;;;16.20;93.30;;;;;;5049782;28;20034;-61
2023/08/29 06:14:58;;;;;;;6.00;2.20;;;16.20;93.40;;;;;;5042359;28;20044;-61
2023/08/29 06:17:24;;;;;;;10.63;2.55;;;16.30;93.40;;;;;;5025959;28;20144;-61
2023/08/29 06:19:49;;;;;;;5.60;2.13;;;16.30;93.40;;;;;;5042242;28;20462;-61
2023/08/29 06:22:15;;;;;;;6.55;2.40;;;16.30;93.40;;;;;;5040887;28;20037;-61
2023/08/29 06:24:41;;;;;;;3.35;1.67;;;16.30;93.40;;;;;;5024173;28;20085;-61
2023/08/29 06:27:06;;;;;;;4.53;2.00;;;16.30;93.40;;;;;;5039225;28;20674;-62
2023/08/29 06:29:35;;;;;;;8.50;2.28;;;16.30;93.30;;;;;;5026356;28;20052;-61
2023/08/29 06:32:00;;;;;;;22.90;4.10;;;16.30;93.30;;;;;;5050301;28;20140;-61
2023/08/29 06:34:26;;;;;;;23.17;4.05;;;16.30;93.40;;;;;;5054752;28;20136;-61
2023/08/29 06:36:51;;;;;;;15.73;2.80;;;16.30;93.40;;;;;;5039326;28;20037;-60
2023/08/29 06:39:17;;;;;;;17.92;2.80;;;16.30;93.40;;;;;;5044754;28;20341;-61
2023/08/29 06:41:43;;;;;;;13.00;2.65;;;16.30;93.50;;;;;;5034258;28;20033;-61
2023/08/29 06:44:09;;;;;;;15.68;3.10;;;16.30;93.50;;;;;;5035907;28;20045;-61
2023/08/29 06:46:34;;;;;;;27.42;2.97;;;16.30;93.50;;;;;;5034716;28;20036;-61
2023/08/29 06:49:00;;;;;;;13.77;3.38;;;16.30;93.50;;;;;;5031149;28;21673;-61
2023/08/29 06:51:25;;;;;;;11.05;2.80;;;16.40;93.50;;;;;;5051355;28;20044;-61
2023/08/29 06:53:51;;;;;;;15.45;3.05;;;16.30;93.40;;;;;;5035610;28;20081;-61
2023/08/29 06:56:18;;;;;;;24.77;3.40;;;16.40;93.50;;;;;;5031061;28;20060;-61
2023/08/29 06:58:44;;;;;;;34.85;5.70;;;16.40;93.50;;;;;;5034250;28;20099;-61
2023/08/29 07:01:09;;;;;;;56.63;7.93;;;16.40;93.80;;;;;;5037000;28;20041;-61
2023/08/29 07:03:35;;;;;;;42.63;7.13;;;16.40;93.90;;;;;;5032695;28;20032;-61
2023/08/29 07:06:00;;;;;;;59.90;7.75;;;16.40;94.00;;;;;;5034995;28;20033;-62
2023/08/29 07:08:26;;;;;;;37.22;6.63;;;16.40;94.00;;;;;;5041846;28;20045;-61
2023/08/29 07:10:52;;;;;;;258.13;28.30;;;16.40;94.10;;;;;;5041439;28;20095;-61
2023/08/29 07:13:17;;;;;;;197.40;22.67;;;16.40;94.10;;;;;;5034220;28;20075;-61
2023/08/29 07:15:43;;;;;;;109.55;12.73;;;16.50;94.20;;;;;;5024916;28;20037;-61
2023/08/29 07:18:09;;;;;;;44.85;6.60;;;16.50;94.20;;;;;;5042081;28;20036;-61
2023/08/29 07:20:34;;;;;;;102.75;12.65;;;16.50;93.90;;;;;;5040013;28;20083;-61
2023/08/29 07:23:00;;;;;;;129.48;16.73;;;16.50;93.90;;;;;;5058254;28;20034;-62
2023/08/29 07:25:55;;;;;;;83.07;11.25;;;16.50;94.00;;;;;;5041291;28;20061;-61
2023/08/29 07:28:20;;;;;;;87.32;10.90;;;16.50;94.10;;;;;;5020751;28;20026;-61
2023/08/29 07:30:48;;;;;;;77.45;9.93;;;16.50;94.00;;;;;;5045549;28;20053;-61
2023/08/29 07:33:14;;;;;;;40.45;7.80;;;16.50;94.10;;;;;;5038876;28;20025;-61
2023/08/29 07:35:40;;;;;;;35.38;6.85;;;16.50;94.20;;;;;;5039688;28;20030;-61
2023/08/29 07:38:05;;;;;;;54.00;7.07;;;16.50;94.10;;;;;;5048186;28;20404;-62
2023/08/29 07:40:32;;;;;;;40.05;6.32;;;16.50;94.20;;;;;;5046138;28;22261;-61
2023/08/29 07:42:58;;;;;;;38.17;7.28;;;16.50;94.30;;;;;;5036210;28;20084;-61
2023/08/29 07:45:23;;;;;;;42.03;5.70;;;16.50;94.30;;;;;;5037048;28;20049;-61
2023/08/29 07:47:49;;;;;;;65.13;8.18;;;16.50;94.30;;;;;;5033725;28;20063;-62
2023/08/29 07:50:14;;;;;;;31.10;5.85;;;16.40;94.50;;;;;;5034481;28;20045;-61
2023/08/29 07:52:40;;;;;;;33.47;5.97;;;16.40;94.50;;;;;;5037285;28;20030;-62
2023/08/29 07:55:06;;;;;;;49.83;5.65;;;16.40;94.80;;;;;;5052614;28;20037;-61
2023/08/29 07:57:31;;;;;;;35.40;5.88;;;16.40;94.50;;;;;;5019392;28;20065;-61
2023/08/29 07:59:57;;;;;;;33.17;5.63;;;16.40;94.50;;;;;;5022294;28;20048;-61
2023/08/29 08:02:22;;;;;;;31.17;5.90;;;16.40;94.50;;;;;;5037899;28;20029;-61
2023/08/29 08:04:48;;;;;;;46.38;6.43;;;16.50;94.50;;;;;;5036989;28;20104;-61
2023/08/29 08:07:13;;;;;;;68.72;9.73;;;16.40;94.50;;;;;;5041371;28;20055;-61
2023/08/29 08:09:42;;;;;;;133.45;13.63;;;16.50;94.60;;;;;;5044893;28;20244;-61
2023/08/29 08:12:07;;;;;;;79.80;9.55;;;16.50;94.70;;;;;;5023612;28;20076;-61
2023/08/29 08:14:33;;;;;;;93.68;11.05;;;16.50;94.90;;;;;;5043988;28;20422;-61
2023/08/29 08:16:58;;;;;;;63.38;9.02;;;16.50;95.00;;;;;;5042401;28;20048;-61
2023/08/29 08:19:24;;;;;;;58.92;7.82;;;16.50;95.10;;;;;;5045187;28;20045;-61
2023/08/29 08:21:50;;;;;;;75.20;9.30;;;16.50;95.10;;;;;;5043527;28;20025;-61
2023/08/29 08:24:16;;;;;;;45.72;8.63;;;16.50;95.00;;;;;;5045451;28;20465;-62
2023/08/29 08:26:42;;;;;;;90.60;11.10;;;16.50;95.00;;;;;;5024747;28;20563;-61
2023/08/29 08:29:07;;;;;;;63.25;10.13;;;16.50;95.10;;;;;;5045549;28;20037;-61
2023/08/29 08:31:33;;;;;;;45.60;7.43;;;16.50;95.00;;;;;;5041459;28;20025;-61
2023/08/29 08:33:58;;;;;;;53.45;9.05;;;16.50;95.00;;;;;;5043407;28;20112;-61
2023/08/29 08:36:24;;;;;;;60.17;9.43;;;16.50;94.90;;;;;;5041699;28;20159;-61
2023/08/29 08:38:50;;;;;;;59.38;9.07;;;16.50;94.90;;;;;;5045980;28;20060;-61
2023/08/29 08:41:15;;;;;;;70.47;9.05;;;16.50;94.90;;;;;;5025842;28;20032;-61
2023/08/29 08:43:41;;;;;;;54.67;7.38;;;16.50;94.90;;;;;;5027952;28;20389;-60
2023/08/29 08:46:07;;;;;;;52.80;8.43;;;16.50;94.90;;;;;;5044873;28;20025;-61
2023/08/29 08:48:37;;;;;;;52.05;8.73;;;16.50;95.00;;;;;;5043998;28;20021;-61
2023/08/29 08:51:04;;;;;;;91.60;9.02;;;16.50;95.00;;;;;;5045040;28;20128;-61
2023/08/29 08:53:29;;;;;;;51.03;8.15;;;16.60;95.20;;;;;;5042950;28;20030;-61
2023/08/29 08:55:55;;;;;;;57.65;7.85;;;16.60;95.40;;;;;;5041356;28;20140;-61
2023/08/29 08:58:20;;;;;;;53.65;7.45;;;16.60;95.30;;;;;;5043485;28;20041;-62
2023/08/29 09:00:46;;;;;;;41.42;7.20;;;16.60;95.20;;;;;;5042608;28;20304;-61
2023/08/29 09:03:13;;;;;;;43.35;7.03;;;16.60;95.30;;;;;;5042161;28;20025;-61
2023/08/29 09:05:39;;;;;;;35.78;6.57;;;16.60;95.40;;;;;;5042636;28;20057;-62
2023/08/29 09:08:04;;;;;;;51.65;6.43;;;16.70;95.40;;;;;;5051188;28;20026;-61
2023/08/29 09:10:33;;;;;;;58.25;7.63;;;16.70;95.40;;;;;;5039470;28;20039;-61
2023/08/29 09:12:59;;;;;;;63.20;9.25;;;16.70;95.30;;;;;;5026771;28;20029;-61
2023/08/29 09:15:25;;;;;;;51.28;8.20;;;16.70;95.50;;;;;;5043313;28;20116;-61
2023/08/29 09:17:52;;;;;;;42.63;6.57;;;16.70;95.50;;;;;;5040544;28;20055;-61
2023/08/29 09:20:18;;;;;;;58.85;7.72;;;16.70;95.40;;;;;;5023659;28;20067;-61
2023/08/29 09:22:44;;;;;;;39.78;7.22;;;16.70;95.70;;;;;;5038593;28;20037;-62
2023/08/29 09:25:10;;;;;;;66.95;8.98;;;16.70;95.40;;;;;;5045505;28;20104;-61
2023/08/29 09:27:43;;;;;;;63.80;8.55;;;16.80;95.40;;;;;;5021338;28;20031;-61
2023/08/29 09:30:11;;;;;;;53.60;7.95;;;16.70;95.40;;;;;;4992305;28;20134;-61
2023/08/29 09:32:51;;;;;;;58.38;8.20;;;16.80;95.30;;;;;;4993738;28;20049;-62
2023/08/29 09:35:19;;;;;;;67.22;10.20;;;16.80;95.30;;;;;;4993813;28;20294;-61
2023/08/29 09:37:52;;;;;;;91.40;10.70;;;16.80;95.40;;;;;;4998001;28;20030;-62
2023/08/29 09:40:18;;;;;;;52.63;7.85;;;16.80;95.40;;;;;;4992413;28;20054;-61
2023/08/29 09:42:59;;;;;;;62.05;8.18;;;16.90;95.40;;;;;;4996662;28;20035;-61
2023/08/29 09:45:28;;;;;;;49.47;7.28;;;16.90;95.20;;;;;;4991072;28;20113;-61
2023/08/29 09:47:56;;;;;;;39.97;7.05;;;17.00;95.20;;;;;;4981239;28;20030;-60
2023/08/29 09:50:21;;;;;;;55.40;6.95;;;16.90;95.00;;;;;;4990674;28;20030;-61
2023/08/29 09:52:49;;;;;;;63.97;7.47;;;17.00;95.00;;;;;;4996432;28;20073;-61
2023/08/29 09:55:14;;;;;;;90.45;10.32;;;17.10;95.00;;;;;;4994933;28;20046;-61
2023/08/29 09:57:40;;;;;;;69.43;10.65;;;17.10;95.00;;;;;;4997383;28;20125;-60
2023/08/29 10:00:09;;;;;;;58.30;9.35;;;17.10;94.90;;;;;;4995213;28;20030;-61
2023/08/29 10:02:34;;;;;;;59.08;8.60;;;17.10;94.80;;;;;;4996984;28;20077;-60
2023/08/29 10:05:06;;;;;;;74.32;10.07;;;17.20;94.60;;;;;;4994354;28;20046;-61
2023/08/29 10:07:42;;;;;;;51.72;6.80;;;17.30;94.60;;;;;;4989684;28;20040;-61
2023/08/29 10:10:08;;;;;;;43.60;5.78;;;17.30;94.30;;;;;;4994338;28;20100;-60
2023/08/29 10:12:33;;;;;;;43.20;6.38;;;17.30;94.10;;;;;;4981250;28;20035;-60
2023/08/29 10:15:00;;;;;;;29.33;5.50;;;17.30;94.00;;;;;;4991742;28;20039;-61
2023/08/29 10:17:26;;;;;;;35.00;6.10;;;17.30;94.00;;;;;;5003925;28;20045;-61
2023/08/29 10:19:51;;;;;;;44.25;6.38;;;17.30;93.90;;;;;;4997280;28;20121;-60
2023/08/29 10:22:17;;;;;;;56.83;8.30;;;17.30;93.80;;;;;;4989375;28;20054;-61
2023/08/29 10:24:44;;;;;;;43.47;6.50;;;17.30;93.90;;;;;;4991681;28;20121;-60
2023/08/29 10:27:10;;;;;;;47.03;6.30;;;17.40;93.90;;;;;;4992379;28;20090;-61
2023/08/29 10:29:37;;;;;;;81.93;8.55;;;17.40;93.70;;;;;;5001485;28;20027;-60
2023/08/29 10:32:03;;;;;;;52.95;8.30;;;17.40;93.80;;;;;;4997771;28;20459;-61
2023/08/29 10:34:29;;;;;;;115.97;13.07;;;17.50;94.00;;;;;;5011450;28;20126;-60
2023/08/29 10:36:55;;;;;;;54.80;8.65;;;17.50;94.00;;;;;;4978780;28;20105;-61
2023/08/29 10:39:21;;;;;;;40.08;8.20;;;17.50;93.90;;;;;;4995770;28;20088;-60
2023/08/29 10:48:46;;;;;;;53.05;7.93;;;17.60;93.50;;;;;;4991993;28;20585;-61
2023/08/29 10:51:15;;;;;;;56.13;9.15;;;17.60;93.50;;;;;;4993037;28;20023;-60
2023/08/29 10:53:46;;;;;;;56.42;7.57;;;17.60;93.30;;;;;;4995441;28;20086;-59
2023/08/29 10:56:13;;;;;;;46.80;7.53;;;17.60;93.20;;;;;;5001306;28;20034;-61
2023/08/29 10:58:40;;;;;;;80.88;10.98;;;17.60;93.30;;;;;;4990452;28;20041;-60
2023/08/29 11:01:06;;;;;;;92.75;11.23;;;17.60;93.40;;;;;;4987710;28;20023;-60
2023/08/29 11:03:45;;;;;;;74.47;9.95;;;17.60;93.50;;;;;;5001549;28;20026;-60
2023/08/29 11:06:11;;;;;;;60.25;8.38;;;17.60;93.40;;;;;;4992242;28;20069;-60
2023/08/29 11:08:36;;;;;;;51.15;7.88;;;17.60;93.20;;;;;;4994641;28;20443;-60
2023/08/29 11:11:19;;;;;;;54.95;9.00;;;17.60;93.10;;;;;;5004534;28;20026;-60
2023/08/29 11:13:57;;;;;;;80.57;9.32;;;17.60;93.00;;;;;;5000108;28;20124;-60
2023/08/29 11:16:23;;;;;;;72.63;9.35;;;17.60;93.00;;;;;;4980060;28;20100;-60
2023/08/29 11:18:58;;;;;;;78.22;9.27;;;17.60;93.00;;;;;;5008083;28;20023;-60
2023/08/29 11:21:24;;;;;;;;;;;17.60;93.00;;;;;;4999243;28;20120;-60
2023/08/29 11:23:49;;;;;;;75.10;10.40;;;17.60;93.00;;;;;;5011913;28;20003;-59
2023/08/29 11:26:15;;;;;;;67.47;9.43;;;17.60;93.10;;;;;;5009802;28;20031;-60
2023/08/29 11:28:42;;;;;;;55.03;7.72;;;17.60;93.20;;;;;;5005080;28;20025;-60
2023/08/29 11:31:08;;;;;;;53.83;7.75;;;17.60;93.20;;;;;;5001285;28;20443;-60
2023/08/29 11:33:34;;;;;;;67.45;10.23;;;17.70;93.10;;;;;;4976328;28;20025;-60
2023/08/29 11:36:02;;;;;;;68.63;9.25;;;17.70;93.10;;;;;;4997463;28;20129;-60
2023/08/29 11:38:29;;;;;;;52.33;8.07;;;17.70;93.20;;;;;;4998825;28;20084;-60
2023/08/29 11:40:58;;;;;;;57.92;8.27;;;17.70;93.10;;;;;;5002002;28;20471;-60
2023/08/29 11:43:24;;;;;;;74.32;9.52;;;17.70;93.00;;;;;;5007639;28;20035;-61
2023/08/29 11:45:53;;;;;;;89.57;10.68;;;17.70;92.90;;;;;;5015216;28;20378;-60
2023/08/29 11:48:25;;;;;;;85.50;10.07;;;17.70;92.80;;;;;;5022237;28;20018;-60
2023/08/29 11:50:52;;;;;;;60.97;7.75;;;17.70;92.80;;;;;;5005709;28;20129;-60
2023/08/29 11:53:27;;;;;;;50.78;8.40;;;17.70;92.70;;;;;;5004093;28;20031;-60
2023/08/29 11:55:53;;;;;;;85.18;9.73;;;17.70;92.60;;;;;;4998936;28;20081;-60
2023/08/29 11:58:19;;;;;;;67.68;9.43;;;17.80;92.60;;;;;;4996487;28;20081;-60
2023/08/29 12:00:45;;;;;;;62.30;8.93;;;17.80;92.50;;;;;;4993365;28;20140;-61
2023/08/29 12:03:10;;;;;;;75.63;10.60;;;17.80;92.50;;;;;;4998063;28;20030;-60
2023/08/29 12:05:36;;;;;;;78.57;10.40;;;17.80;92.50;;;;;;4987491;28;20053;-60
2023/08/29 12:08:02;;;;;;;85.65;10.75;;;17.80;92.50;;;;;;5002444;28;20037;-60
2023/08/29 12:10:29;;;;;;;68.75;9.60;;;17.80;92.50;;;;;;5001722;28;20030;-61
2023/08/29 12:12:55;;;;;;;52.40;8.50;;;17.80;92.40;;;;;;5005527;28;20054;-60
2023/08/29 12:15:35;;;;;;;58.95;8.60;;;17.80;92.40;;;;;;4986264;28;20038;-61
2023/08/29 12:18:00;;;;;;;68.50;10.43;;;17.80;92.40;;;;;;5006433;28;20030;-61
2023/08/29 12:20:31;;;;;;;73.72;10.70;;;17.90;92.40;;;;;;5007289;28;20133;-61
2023/08/29 12:22:56;;;;;;;64.28;7.95;;;17.90;92.30;;;;;;4989988;28;20134;-61
2023/08/29 12:25:22;;;;;;;51.55;8.18;;;17.90;92.10;;;;;;5004863;28;20152;-61
2023/08/29 12:27:48;;;;;;;46.58;7.10;;;17.90;92.00;;;;;;5007136;28;20029;-61
2023/08/29 12:30:14;;;;;;;62.67;7.97;;;17.90;92.00;;;;;;4989125;28;20042;-61
2023/08/29 12:32:40;;;;;;;103.55;10.80;;;17.90;91.90;;;;;;5005484;28;20022;-61
2023/08/29 12:35:06;;;;;;;107.32;11.90;;;17.90;91.90;;;;;;5002310;28;20053;-61
2023/08/29 12:37:32;;;;;;;99.47;12.43;;;17.90;92.10;;;;;;4994149;28;20027;-61
2023/08/29 12:39:58;;;;;;;81.53;10.68;;;17.90;92.20;;;;;;4982699;28;20038;-61
2023/08/29 12:42:23;;;;;;;105.85;12.50;;;17.90;92.20;;;;;;4996814;28;20086;-61
2023/08/29 12:44:49;;;;;;;74.82;9.70;;;18.00;92.20;;;;;;5001831;28;20112;-61